createdAt,value
2019-05-16T00:00:16.204Z,52.40
2019-05-16T00:05:23.889Z,52.30
2019-05-16T00:10:28.490Z,52.70
2019-05-16T00:15:33.445Z,53.10
2019-05-16T00:20:39.601Z,53.50
2019-05-16T00:25:47.704Z,53.70
2019-05-16T00:30:53.621Z,54.50
2019-05-16T00:36:05.664Z,54.90
2019-05-16T00:41:10.741Z,55.30
2019-05-16T00:46:15.613Z,55.90
2019-05-16T00:51:20.304Z,55.90
2019-05-16T00:56:26.281Z,56.00
2019-05-16T01:01:34.285Z,56.40
2019-05-16T01:06:38.977Z,56.80
2019-05-16T01:11:44.276Z,57.20
2019-05-16T01:16:48.923Z,57.30
2019-05-16T01:21:53.695Z,57.30
2019-05-16T01:26:58.186Z,57.50
2019-05-16T01:32:02.576Z,58.10
2019-05-16T01:37:08.317Z,58.60
2019-05-16T01:42:14.254Z,58.10
2019-05-16T01:47:18.858Z,58.60
2019-05-16T01:52:23.536Z,59.10
2019-05-16T01:57:28.301Z,59.20
2019-05-16T02:02:33.425Z,59.60
2019-05-16T02:07:44.699Z,59.90
2019-05-16T02:12:49.254Z,59.90
2019-05-16T02:17:53.769Z,60.20
2019-05-16T02:22:59.749Z,60.80
2019-05-16T02:28:04.396Z,61.60
2019-05-16T02:33:11.639Z,61.80
2019-05-16T02:38:16.680Z,62.50
2019-05-16T02:43:26.096Z,63.00
2019-05-16T02:48:31.732Z,63.10
2019-05-16T02:53:34.813Z,64.90
2019-05-16T02:58:44.198Z,64.60
2019-05-16T03:03:45.687Z,65.00
2019-05-16T03:08:50.763Z,65.00
2019-05-16T03:13:56.916Z,65.50
2019-05-16T03:19:05.454Z,66.50
2019-05-16T03:24:11.538Z,66.80
2019-05-16T03:29:17.803Z,67.10
2019-05-16T03:34:25.196Z,67.50
2019-05-16T03:39:31.339Z,68.00
2019-05-16T03:44:36.073Z,68.90
2019-05-16T03:49:43.384Z,68.30
2019-05-16T03:54:50.548Z,68.80
2019-05-16T03:59:55.849Z,69.50
2019-05-16T04:05:01.675Z,69.20
2019-05-16T04:10:11.482Z,70.50
2019-05-16T04:15:16.374Z,70.00
2019-05-16T04:20:21.688Z,71.00
2019-05-16T04:25:27.265Z,71.10
2019-05-16T04:30:34.628Z,70.90
2019-05-16T04:35:41.159Z,70.70
2019-05-16T04:40:45.680Z,72.00
2019-05-16T04:45:52.224Z,72.10
2019-05-16T04:51:01.012Z,71.70
2019-05-16T04:56:04.144Z,71.20
2019-05-16T05:01:11.698Z,71.50
2019-05-16T05:06:26.707Z,70.70
2019-05-16T05:11:33.145Z,70.30
2019-05-16T05:16:37.682Z,69.80
2019-05-16T05:22:01.663Z,69.10
2019-05-16T05:27:06.130Z,69.00
2019-05-16T05:32:14.319Z,68.90
2019-05-16T05:37:20.426Z,69.10
2019-05-16T05:42:24.771Z,69.10
2019-05-16T05:47:30.713Z,68.90
2019-05-16T05:52:35.752Z,68.60
2019-05-16T05:57:40.707Z,68.20
2019-05-16T06:02:46.931Z,67.30
2019-05-16T06:07:51.319Z,65.20
2019-05-16T06:12:55.724Z,64.20
2019-05-16T06:18:00.382Z,62.60
2019-05-16T06:28:10.440Z,59.20
2019-05-16T06:33:14.453Z,58.20
2019-05-16T06:38:21.092Z,58.30
2019-05-16T06:43:25.809Z,57.80
2019-05-16T06:48:30.537Z,56.80
2019-05-16T06:53:35.159Z,56.00
2019-05-16T06:58:47.613Z,55.20
2019-05-16T07:03:45.647Z,54.80
2019-05-16T07:08:50.768Z,54.10
2019-05-16T07:13:55.490Z,54.00
2019-05-16T07:19:00.817Z,54.10
2019-05-16T07:24:05.588Z,54.40
2019-05-16T07:29:10.978Z,54.70
2019-05-16T07:34:15.690Z,54.70
2019-05-16T07:39:20.161Z,54.30
2019-05-16T07:49:27.335Z,52.90
2019-05-16T07:54:34.641Z,52.90
2019-05-16T07:59:37.918Z,53.20
2019-05-16T08:04:42.504Z,52.60
2019-05-16T08:09:46.902Z,52.90
2019-05-16T08:14:51.369Z,53.40
2019-05-16T08:19:55.791Z,52.30
2019-05-16T08:25:00.408Z,52.70
2019-05-16T08:30:07.422Z,52.70
2019-05-16T08:35:12.284Z,52.60
2019-05-16T08:40:21.057Z,52.20
2019-05-16T08:45:23.473Z,52.10
2019-05-16T08:50:27.859Z,50.90
2019-05-16T08:55:32.253Z,51.10
2019-05-16T09:00:36.621Z,51.20
2019-05-16T09:05:42.954Z,50.80
2019-05-16T09:10:59.067Z,50.50
2019-05-16T09:16:04.420Z,49.90
2019-05-16T09:21:08.812Z,49.60
2019-05-16T09:26:16.183Z,49.70
2019-05-16T09:31:19.365Z,49.30
2019-05-16T09:36:23.772Z,48.70
2019-05-16T09:41:46.348Z,48.20
2019-05-16T09:46:34.504Z,48.10
2019-05-16T09:51:39.223Z,47.60
2019-05-16T09:56:43.709Z,47.20
2019-05-16T10:01:48.307Z,46.90
2019-05-16T10:06:52.724Z,46.50
2019-05-16T10:12:08.077Z,46.40
2019-05-16T10:17:03.886Z,46.60
2019-05-16T10:22:08.338Z,46.80
2019-05-16T10:27:12.993Z,46.60
2019-05-16T10:32:17.445Z,45.90
2019-05-16T10:37:21.838Z,46.30
2019-05-16T10:42:28.958Z,46.20
2019-05-16T10:47:33.225Z,45.50
2019-05-16T10:52:37.831Z,44.10
2019-05-16T10:57:42.456Z,43.10
2019-05-16T11:02:46.984Z,41.90
2019-05-16T11:07:53.350Z,41.20
2019-05-16T11:12:59.735Z,40.40
2019-05-16T11:18:03.812Z,40.00
2019-05-16T11:23:09.501Z,39.30
2019-05-16T11:28:13.908Z,39.90
2019-05-16T11:33:18.295Z,40.00
2019-05-16T11:38:22.736Z,39.60
2019-05-16T11:43:27.840Z,39.20
2019-05-16T11:48:32.430Z,38.70
2019-05-16T11:53:37.846Z,39.60
2019-05-16T11:58:42.862Z,39.30
2019-05-16T12:03:47.240Z,40.00
2019-05-16T12:08:52.172Z,40.90
2019-05-16T12:13:56.813Z,41.60
2019-05-16T12:19:01.338Z,41.70
2019-05-16T12:24:07.451Z,42.40
2019-05-16T12:29:12.087Z,43.20
2019-05-16T12:34:16.484Z,43.00
2019-05-16T12:39:20.940Z,43.40
2019-05-16T12:44:26.893Z,43.60
2019-05-16T12:49:31.624Z,43.70
2019-05-16T12:54:37.052Z,43.10
2019-05-16T12:59:49.204Z,43.00
2019-05-16T13:04:48.069Z,43.40
2019-05-16T13:09:52.530Z,42.80
2019-05-16T13:14:56.905Z,42.00
2019-05-16T13:20:01.559Z,41.60
2019-05-16T13:25:08.203Z,38.70
2019-05-16T13:30:13.676Z,38.90
2019-05-16T13:35:18.290Z,38.30
2019-05-16T13:40:22.839Z,38.10
2019-05-16T13:45:27.537Z,38.70
2019-05-16T13:50:36.541Z,38.60
2019-05-16T13:55:40.921Z,38.40
2019-05-16T14:00:48.083Z,38.00
2019-05-16T14:05:51.779Z,38.50
2019-05-16T14:11:01.755Z,36.80
2019-05-16T14:16:02.273Z,37.50
2019-05-16T14:21:06.966Z,37.20
2019-05-16T14:26:11.750Z,37.80
2019-05-16T14:31:17.429Z,36.90
2019-05-16T14:36:22.064Z,37.50
2019-05-16T14:41:27.930Z,38.20
2019-05-16T14:46:32.501Z,37.80
2019-05-16T14:51:38.598Z,37.90
2019-05-16T14:56:47.319Z,37.90
2019-05-16T15:01:50.499Z,37.60
2019-05-16T15:06:57.210Z,37.20
2019-05-16T15:12:01.064Z,37.10
2019-05-16T15:17:06.991Z,37.90
2019-05-16T15:22:13.124Z,38.10
2019-05-16T15:27:17.484Z,39.00
2019-05-16T15:32:21.898Z,39.10
2019-05-16T15:37:27.381Z,39.30
2019-05-16T15:42:31.952Z,39.60
2019-05-16T15:47:37.743Z,40.30
2019-05-16T15:52:43.558Z,40.70
2019-05-16T15:57:47.946Z,40.20
2019-05-16T16:02:53.774Z,40.20
2019-05-16T16:07:58.327Z,40.60
2019-05-16T16:13:02.849Z,40.70
2019-05-16T16:18:09.103Z,40.90
2019-05-16T16:23:13.842Z,40.80
2019-05-16T16:28:18.296Z,39.90
2019-05-16T16:33:29.087Z,39.70
2019-05-16T16:38:28.909Z,40.00
2019-05-16T16:43:33.368Z,40.10
2019-05-16T16:48:37.835Z,40.00
2019-05-16T16:53:42.460Z,40.20
2019-05-16T16:58:46.971Z,40.40
2019-05-16T17:03:54.549Z,40.60
2019-05-16T17:08:57.700Z,40.50
2019-05-16T17:14:02.171Z,40.70
2019-05-16T17:19:07.674Z,41.60
2019-05-16T17:24:12.339Z,41.20
2019-05-16T17:29:17.146Z,41.80
2019-05-16T17:34:21.798Z,41.90
2019-05-16T17:39:27.479Z,41.70
2019-05-16T17:44:38.387Z,41.80
2019-05-16T17:49:42.965Z,41.70
2019-05-16T17:54:47.466Z,41.70
2019-05-16T17:59:51.859Z,42.00
2019-05-16T18:04:56.755Z,42.50
2019-05-16T18:10:01.315Z,42.60
2019-05-16T18:15:08.574Z,42.40
2019-05-16T18:20:13.410Z,42.80
2019-05-16T18:25:18.038Z,43.00
2019-05-16T18:30:27.112Z,43.30
2019-05-16T18:35:31.654Z,43.30
2019-05-16T18:40:36.769Z,43.70
2019-05-16T18:45:41.692Z,44.20
2019-05-16T18:50:47.722Z,44.40
2019-05-16T18:55:52.431Z,44.80
2019-05-16T19:00:57.042Z,46.30
2019-05-16T19:06:03.050Z,47.00
2019-05-16T19:11:07.801Z,47.60
2019-05-16T19:16:13.304Z,51.30
2019-05-16T19:21:19.175Z,52.30
2019-05-16T19:26:31.706Z,53.90
2019-05-16T19:31:50.235Z,55.20
2019-05-16T19:37:02.036Z,55.20
2019-05-16T19:42:17.124Z,55.50
2019-05-16T19:47:34.997Z,56.20
2019-05-16T19:52:47.183Z,57.10
2019-05-16T19:57:59.527Z,57.50
2019-05-16T20:03:07.774Z,57.90
2019-05-16T20:08:13.781Z,58.70
2019-05-16T20:13:20.220Z,59.00
2019-05-16T20:18:31.497Z,59.90
2019-05-16T20:23:39.906Z,62.20
2019-05-16T20:28:47.485Z,62.70
2019-05-16T20:34:00.691Z,64.00
2019-05-16T20:39:09.915Z,65.80
2019-05-16T20:44:28.244Z,66.40
2019-05-16T20:55:17.528Z,67.10
2019-05-16T21:00:26.825Z,67.70
2019-05-16T21:05:32.771Z,67.90
2019-05-16T21:10:43.121Z,69.10
2019-05-16T21:15:51.743Z,69.60
2019-05-16T21:20:57.465Z,69.10
2019-05-16T21:26:05.907Z,69.50
2019-05-16T21:31:10.802Z,69.10
2019-05-16T21:36:16.103Z,69.00
2019-05-16T21:41:31.241Z,69.60
2019-05-16T21:46:40.194Z,69.40
2019-05-16T21:51:46.601Z,69.10
2019-05-16T21:56:51.227Z,69.50
2019-05-16T22:01:57.812Z,70.00
2019-05-16T22:07:02.867Z,69.90
2019-05-16T22:12:07.739Z,69.80
2019-05-16T22:17:28.641Z,69.80
2019-05-16T22:22:29.247Z,70.30
2019-05-16T22:27:31.113Z,70.00
2019-05-16T22:32:38.134Z,70.00
2019-05-16T22:37:52.209Z,70.10
2019-05-16T22:42:51.610Z,70.90
2019-05-16T22:47:57.064Z,71.50
2019-05-16T22:53:02.381Z,71.40
2019-05-16T22:58:09.847Z,72.40
2019-05-16T23:03:14.536Z,74.30
2019-05-16T23:08:23.796Z,75.70
2019-05-16T23:13:28.528Z,76.60
2019-05-16T23:18:33.378Z,77.80
2019-05-16T23:23:39.570Z,77.30
2019-05-16T23:28:47.443Z,76.30
2019-05-16T23:33:52.087Z,76.00
2019-05-16T23:38:57.385Z,75.60
2019-05-16T23:44:04.067Z,76.40
2019-05-16T23:54:11.421Z,75.40
2019-05-16T23:59:17.221Z,75.50
